Airport View

Enter AWOS ICAO identifier for current METAR.

ex. KFNL

KETC 300455Z AUTO 22009G15KT 10SM 24/22 A2952 RMK AO2 T02440216

30 Oct 2020 05:21

Frequency: 119.575

Phone: 252-641-1640

Other Area AWOS: KRWI - KPGV - KIXA - KASJ

TAF AMD KRWI 300427Z 3004/3024 20012G19KT P6SM BKN020 TEMPO 3006/3009 VRB15G35KT 2SM TSRA BKN025CB FM300900 26012G25KT P6SM BKN025 FM301300 31012G20KT P6SM SCT025